Time;durP1;ratioP1;P1;durP2;ratioP2;P2;SDS_P1;SDS_P2;PMS_P1;PMS_P2;Temp;Humidity;BMP_temperature;BMP_pressure;BME280_temperature;BME280_humidity;BME280_pressure;Samples;Min_cycle;Max_cycle;Signal;HPM_P1;HPM_P2
2022/03/22 00:00:21;;;;;;;1.70;1.60;;;11.80;99.90;;;;;;5051211;28;20200;-78
2022/03/22 00:02:47;;;;;;;0.80;0.50;;;11.70;99.90;;;;;;5051761;28;20199;-77
2022/03/22 00:05:15;;;;;;;0.50;0.40;;;11.70;99.90;;;;;;5052028;28;20195;-78
2022/03/22 00:07:42;;;;;;;0.70;0.70;;;11.70;99.90;;;;;;5052043;28;20689;-78
2022/03/22 00:10:11;;;;;;;1.95;1.85;;;11.70;99.90;;;;;;5051275;28;20198;-78
2022/03/22 00:12:38;;;;;;;1.52;1.42;;;11.70;99.90;;;;;;5051932;28;20244;-78
2022/03/22 00:15:06;;;;;;;1.55;1.52;;;11.60;99.90;;;;;;5051981;28;20201;-78
2022/03/22 00:17:32;;;;;;;0.50;0.40;;;11.50;99.90;;;;;;5051984;28;20233;-78
2022/03/22 00:19:59;;;;;;;1.40;0.93;;;11.60;99.90;;;;;;5050698;28;20198;-78
2022/03/22 00:22:26;;;;;;;2.25;0.77;;;11.50;99.90;;;;;;5051838;28;20691;-78
2022/03/22 00:24:53;;;;;;;0.88;0.88;;;11.40;99.90;;;;;;5051301;28;20204;-78
2022/03/22 00:27:21;;;;;;;11.40;10.23;;;11.40;99.90;;;;;;5051736;28;20219;-78
2022/03/22 00:29:48;;;;;;;0.85;0.85;;;11.50;99.90;;;;;;5048945;28;20217;-78
2022/03/22 00:32:17;;;;;;;7.22;1.13;;;11.40;99.90;;;;;;5052070;28;20256;-78
2022/03/22 00:34:45;;;;;;;1.05;0.82;;;11.40;99.90;;;;;;5051865;28;20201;-77
2022/03/22 00:37:14;;;;;;;2.25;1.58;;;11.40;99.90;;;;;;5050904;28;20199;-78
2022/03/22 00:39:42;;;;;;;0.50;0.40;;;11.40;99.70;;;;;;5051069;28;20225;-77
2022/03/22 00:42:10;;;;;;;2.47;2.28;;;11.40;99.50;;;;;;5051102;28;20195;-77
2022/03/22 00:44:38;;;;;;;16.92;7.38;;;11.40;99.40;;;;;;5051456;28;20205;-78
2022/03/22 00:47:06;;;;;;;0.50;0.40;;;11.50;98.70;;;;;;5051812;28;20216;-77
2022/03/22 00:49:34;;;;;;;3.63;3.42;;;11.40;99.00;;;;;;5050543;28;20214;-79
2022/03/22 00:52:01;;;;;;;1.02;1.00;;;11.30;98.70;;;;;;5051513;28;20206;-78
2022/03/22 00:54:28;;;;;;;21.42;9.07;;;11.40;98.10;;;;;;5050067;28;20202;-78
2022/03/22 00:56:55;;;;;;;3.03;2.83;;;11.30;98.40;;;;;;5051347;28;20666;-78
2022/03/22 01:02:08;;;;;;;4.05;3.70;;;11.20;98.00;;;;;;5051340;28;20252;-78
2022/03/22 01:04:35;;;;;;;1.42;1.33;;;11.30;97.60;;;;;;5051224;28;20199;-78
2022/03/22 01:07:02;;;;;;;2.00;1.45;;;11.30;97.20;;;;;;5051316;28;20198;-76
2022/03/22 01:09:28;;;;;;;0.50;0.50;;;11.30;96.60;;;;;;5050745;28;20225;-78
2022/03/22 01:11:56;;;;;;;0.77;0.77;;;11.30;96.50;;;;;;5057642;28;20207;-79
2022/03/22 01:14:23;;;;;;;0.93;0.93;;;11.30;95.90;;;;;;5063886;28;20201;-76
2022/03/22 01:16:49;;;;;;;0.50;0.40;;;11.30;95.40;;;;;;5062343;28;20202;-76
2022/03/22 01:19:19;;;;;;;0.50;0.45;;;11.30;95.40;;;;;;5062194;28;20213;-76
2022/03/22 01:21:46;;;;;;;0.50;0.40;;;11.30;94.90;;;;;;5064203;28;20204;-79
2022/03/22 01:24:12;;;;;;;0.50;0.40;;;11.30;94.60;;;;;;5062651;28;20193;-75
2022/03/22 01:26:40;;;;;;;0.50;0.50;;;11.40;94.20;;;;;;5060385;28;20193;-76
2022/03/22 01:29:07;;;;;;;1.40;0.93;;;11.30;94.10;;;;;;5060863;28;20268;-76
2022/03/22 01:31:34;;;;;;;1.55;1.45;;;11.30;93.60;;;;;;5063325;28;20197;-76
2022/03/22 01:34:01;;;;;;;2.45;2.25;;;11.30;93.40;;;;;;5063276;28;20193;-77
2022/03/22 01:36:30;;;;;;;2.47;2.38;;;11.40;92.80;;;;;;5063223;28;20208;-79
2022/03/22 01:38:56;;;;;;;0.60;0.50;;;11.40;92.50;;;;;;5063552;28;20209;-78
2022/03/22 01:41:24;;;;;;;1.20;1.20;;;11.40;92.40;;;;;;5063748;28;20198;-78
2022/03/22 01:43:51;;;;;;;1.02;0.93;;;11.30;92.60;;;;;;5056173;28;20333;-78
2022/03/22 01:46:24;;;;;;;2.20;2.03;;;11.30;92.20;;;;;;5051300;28;20205;-77
2022/03/22 01:48:51;;;;;;;0.50;0.40;;;11.30;91.60;;;;;;5052996;28;20237;-78
2022/03/22 01:51:20;;;;;;;2.53;2.30;;;11.30;91.50;;;;;;5054938;28;20209;-78
2022/03/22 01:53:49;;;;;;;0.80;0.80;;;11.30;91.40;;;;;;5054472;28;20206;-78
2022/03/22 01:56:16;;;;;;;1.73;1.63;;;11.30;91.20;;;;;;5055145;28;20563;-77
2022/03/22 01:58:43;;;;;;;1.42;1.33;;;11.20;91.10;;;;;;5055268;28;20214;-79
2022/03/22 02:06:40;;;;;;;0.50;0.40;;;11.20;90.20;;;;;;5054453;28;20196;-78
2022/03/22 02:09:08;;;;;;;3.63;2.95;;;11.20;90.20;;;;;;5053633;28;20621;-78
2022/03/22 02:11:35;;;;;;;0.50;0.50;;;11.20;89.50;;;;;;5054506;28;20263;-78
2022/03/22 02:14:01;;;;;;;0.60;0.60;;;11.20;89.80;;;;;;5054570;28;20244;-78
2022/03/22 02:16:28;;;;;;;1.35;0.70;;;11.20;88.80;;;;;;5054064;28;20827;-78
2022/03/22 02:18:55;;;;;;;2.25;1.75;;;11.20;88.30;;;;;;5052947;28;20265;-78
2022/03/22 02:21:25;;;;;;;4.85;2.72;;;11.20;88.70;;;;;;5054630;28;20194;-78
2022/03/22 02:23:55;;;;;;;1.45;1.02;;;11.20;88.20;;;;;;5055341;28;20257;-78
2022/03/22 02:26:23;;;;;;;0.50;0.50;;;11.20;88.00;;;;;;5054113;28;20197;-78
2022/03/22 02:28:53;;;;;;;3.45;1.58;;;11.10;88.10;;;;;;5052831;28;20222;-78
2022/03/22 02:31:20;;;;;;;2.00;1.90;;;11.10;88.50;;;;;;5053991;28;20209;-78
2022/03/22 02:33:47;;;;;;;2.85;2.50;;;11.10;87.80;;;;;;5054242;28;20201;-78
2022/03/22 02:36:14;;;;;;;0.70;0.70;;;11.10;87.80;;;;;;5062028;28;20202;-77
2022/03/22 02:38:41;;;;;;;3.60;3.40;;;11.20;87.20;;;;;;5063600;28;20263;-79
2022/03/22 02:41:16;;;;;;;0.70;0.70;;;11.10;87.10;;;;;;5064144;28;20209;-76
2022/03/22 02:43:43;;;;;;;5.75;5.45;;;11.20;86.70;;;;;;5065405;28;20269;-78
2022/03/22 02:46:09;;;;;;;2.78;2.58;;;11.20;85.10;;;;;;5068054;28;20205;-78
2022/03/22 02:48:36;;;;;;;1.42;1.33;;;11.20;84.80;;;;;;5067197;28;20225;-79
2022/03/22 02:51:03;;;;;;;0.93;0.93;;;11.20;83.80;;;;;;5066710;28;20197;-78
2022/03/22 02:53:30;;;;;;;1.23;1.00;;;11.20;83.70;;;;;;5068342;28;20205;-78
2022/03/22 02:55:56;;;;;;;0.85;0.85;;;11.20;82.90;;;;;;5066975;28;20196;-78
2022/03/22 02:58:24;;;;;;;0.90;0.90;;;11.20;82.50;;;;;;5066676;28;20210;-79
2022/03/22 03:00:51;;;;;;;2.70;2.22;;;11.20;81.80;;;;;;5066584;28;20202;-78
2022/03/22 03:03:22;;;;;;;0.50;0.40;;;11.20;82.10;;;;;;5068459;28;20201;-78
2022/03/22 03:05:49;;;;;;;2.03;1.70;;;11.10;80.40;;;;;;5067172;28;20198;-78
2022/03/22 03:08:16;;;;;;;2.60;2.47;;;11.10;79.80;;;;;;5056735;28;20253;-77
2022/03/22 03:10:43;;;;;;;0.50;0.40;;;11.10;79.50;;;;;;5053410;28;20194;-78
2022/03/22 03:13:10;;;;;;;0.50;0.40;;;11.10;79.10;;;;;;5055754;28;20202;-76
2022/03/22 03:15:39;;;;;;;0.50;0.50;;;11.10;78.70;;;;;;5054036;28;20688;-78
2022/03/22 03:18:06;;;;;;;0.88;0.88;;;11.10;78.60;;;;;;5053210;28;20230;-77
2022/03/22 03:20:32;;;;;;;1.13;0.85;;;11.10;77.30;;;;;;5052161;28;20191;-78
2022/03/22 03:22:59;;;;;;;3.53;3.33;;;11.10;77.30;;;;;;5052859;28;20204;-78
2022/03/22 03:25:26;;;;;;;2.05;1.95;;;11.00;76.60;;;;;;5053438;28;20201;-78
2022/03/22 03:27:53;;;;;;;0.60;0.40;;;10.90;76.40;;;;;;5051800;28;20221;-77
2022/03/22 03:30:20;;;;;;;2.40;2.10;;;11.00;76.60;;;;;;5052391;28;20761;-78
2022/03/22 03:32:48;;;;;;;1.50;1.40;;;10.90;75.70;;;;;;5052568;28;20821;-78
2022/03/22 03:35:15;;;;;;;0.50;0.40;;;10.90;74.60;;;;;;5053246;28;20255;-77
2022/03/22 03:37:43;;;;;;;1.83;1.70;;;11.00;74.40;;;;;;5053633;28;20221;-78
2022/03/22 03:40:11;;;;;;;1.50;1.40;;;10.90;73.80;;;;;;5051875;28;20205;-78
2022/03/22 03:42:42;;;;;;;6.45;2.75;;;10.90;73.80;;;;;;5052924;28;20267;-78
2022/03/22 03:47:58;;;;;;;0.50;0.50;;;10.90;71.80;;;;;;5052147;28;20212;-78
2022/03/22 03:50:26;;;;;;;2.20;2.10;;;10.90;71.50;;;;;;5051761;28;20223;-78
2022/03/22 03:52:53;;;;;;;0.70;0.70;;;10.90;70.80;;;;;;5052257;28;20614;-78
2022/03/22 03:55:19;;;;;;;0.80;0.80;;;10.90;70.40;;;;;;5052784;28;20209;-78
2022/03/22 03:57:48;;;;;;;1.70;1.60;;;10.80;70.90;;;;;;5052126;28;20217;-78
2022/03/22 04:00:16;;;;;;;0.50;0.40;;;10.80;69.40;;;;;;5057843;28;20193;-78
2022/03/22 04:02:43;;;;;;;0.50;0.50;;;10.70;69.20;;;;;;5054356;28;20206;-78
2022/03/22 04:05:11;;;;;;;0.80;0.80;;;10.80;68.40;;;;;;5052634;28;20206;-78
2022/03/22 04:07:38;;;;;;;2.75;2.55;;;10.70;68.60;;;;;;5052447;28;20221;-78
2022/03/22 04:10:06;;;;;;;5.70;5.38;;;10.70;68.00;;;;;;5050952;28;20221;-76
2022/03/22 04:12:39;;;;;;;1.05;0.77;;;10.80;67.20;;;;;;5052230;28;20545;-78
2022/03/22 04:15:07;;;;;;;0.50;0.40;;;10.70;66.80;;;;;;5052504;28;20182;-78
2022/03/22 04:17:34;;;;;;;1.67;1.15;;;10.70;67.00;;;;;;5051440;28;20236;-78
2022/03/22 04:20:01;;;;;;;1.05;0.82;;;10.70;66.10;;;;;;5051360;28;20993;-78
2022/03/22 04:22:30;;;;;;;0.50;0.50;;;10.70;65.80;;;;;;5053309;28;20194;-78
2022/03/22 04:24:57;;;;;;;0.50;0.40;;;10.60;65.70;;;;;;5051961;28;20250;-78
2022/03/22 04:32:49;;;;;;;0.50;0.40;;;10.50;65.20;;;;;;5017779;28;20193;-77
2022/03/22 04:35:18;;;;;;;3.45;3.25;;;10.50;64.90;;;;;;5051780;28;20564;-76
2022/03/22 04:37:47;;;;;;;0.50;0.40;;;10.50;64.00;;;;;;5052068;28;20229;-77
2022/03/22 04:40:15;;;;;;;2.45;2.35;;;10.40;63.50;;;;;;5050339;28;20247;-78
2022/03/22 04:42:42;;;;;;;1.77;1.73;;;10.40;64.60;;;;;;5051925;28;20231;-76
2022/03/22 04:45:10;;;;;;;0.50;0.40;;;10.30;66.90;;;;;;5052139;28;20209;-78
2022/03/22 04:47:37;;;;;;;0.50;0.40;;;10.00;70.40;;;;;;5051835;28;20218;-77
2022/03/22 04:50:05;;;;;;;0.60;0.50;;;9.70;73.70;;;;;;5050637;28;20214;-79
2022/03/22 04:58:02;;;;;;;0.50;0.40;;;9.20;84.00;;;;;;5051492;28;20215;-77
2022/03/22 05:00:29;;;;;;;0.50;0.40;;;9.10;87.30;;;;;;5050615;28;20197;-78
2022/03/22 05:02:56;;;;;;;0.50;0.40;;;8.90;88.30;;;;;;5051550;28;20233;-78
2022/03/22 05:08:04;;;;;;;0.50;0.40;;;8.50;92.60;;;;;;5050761;28;20751;-76
2022/03/22 05:10:33;;;;;;;0.50;0.40;;;8.40;99.90;;;;;;5050722;28;20212;-77
2022/03/22 05:12:59;;;;;;;0.50;0.40;;;8.30;99.90;;;;;;5051740;28;20210;-78
2022/03/22 05:15:26;;;;;;;0.65;0.65;;;8.20;99.90;;;;;;5051604;28;20204;-78
2022/03/22 05:17:53;;;;;;;0.50;0.40;;;8.20;99.90;;;;;;5051276;28;20223;-78
2022/03/22 05:20:20;;;;;;;0.50;0.40;;;8.10;99.90;;;;;;5050891;28;20199;-79
2022/03/22 05:22:48;;;;;;;1.55;1.35;;;8.00;99.90;;;;;;5051852;28;20196;-78
2022/03/22 05:25:15;;;;;;;0.50;0.40;;;7.90;99.90;;;;;;5055869;28;20202;-76
2022/03/22 05:27:43;;;;;;;0.50;0.40;;;7.90;99.90;;;;;;5054585;28;20211;-76
2022/03/22 05:30:11;;;;;;;0.50;0.40;;;7.80;99.90;;;;;;5054869;28;20211;-77
2022/03/22 05:32:37;;;;;;;0.50;0.40;;;7.80;99.90;;;;;;5055483;28;20242;-78
2022/03/22 05:35:04;;;;;;;0.50;0.40;;;7.70;99.90;;;;;;5055139;28;20203;-78
2022/03/22 05:37:31;;;;;;;0.50;0.40;;;7.70;99.90;;;;;;5055833;28;20223;-78
2022/03/22 05:39:58;;;;;;;0.50;0.40;;;7.70;99.90;;;;;;5054191;28;20198;-78
2022/03/22 05:42:25;;;;;;;0.50;0.40;;;7.60;99.90;;;;;;5054685;28;20202;-77
2022/03/22 05:44:53;;;;;;;0.50;0.40;;;7.60;99.90;;;;;;5055146;28;20197;-78
2022/03/22 05:47:20;;;;;;;0.50;0.40;;;7.60;99.90;;;;;;5054489;28;20198;-77
2022/03/22 05:49:47;;;;;;;0.50;0.40;;;7.70;99.90;;;;;;5053902;28;20213;-77
2022/03/22 05:52:13;;;;;;;0.57;0.55;;;7.80;99.90;;;;;;5054674;28;20664;-78
2022/03/22 05:54:40;;;;;;;1.88;1.63;;;7.90;99.90;;;;;;5055083;28;20206;-76
2022/03/22 05:57:07;;;;;;;0.50;0.50;;;8.00;99.90;;;;;;5055165;28;20198;-77
2022/03/22 05:59:33;;;;;;;0.50;0.40;;;8.00;99.90;;;;;;5053991;28;20195;-76
2022/03/22 06:02:02;;;;;;;0.50;0.40;;;8.10;99.90;;;;;;5054420;28;20741;-76
2022/03/22 06:04:28;;;;;;;0.50;0.40;;;8.30;99.90;;;;;;5054395;28;20203;-76
2022/03/22 06:06:55;;;;;;;0.50;0.40;;;8.50;99.90;;;;;;5054432;28;20537;-76
2022/03/22 06:09:22;;;;;;;0.60;0.60;;;8.70;99.90;;;;;;5053103;28;20226;-77
2022/03/22 06:11:48;;;;;;;0.50;0.50;;;9.00;99.90;;;;;;5054140;28;20199;-76
2022/03/22 06:14:15;;;;;;;0.50;0.40;;;9.20;99.90;;;;;;5055127;28;20195;-75
2022/03/22 06:16:42;;;;;;;0.50;0.40;;;9.40;99.90;;;;;;5053936;28;20196;-77
2022/03/22 06:19:10;;;;;;;0.50;0.40;;;9.60;99.90;;;;;;5052660;28;20269;-77
2022/03/22 06:21:36;;;;;;;6.68;1.77;;;9.70;99.90;;;;;;5053715;28;20283;-77
2022/03/22 06:24:03;;;;;;;0.50;0.40;;;9.90;99.90;;;;;;5054295;28;20199;-77
2022/03/22 06:26:30;;;;;;;0.50;0.40;;;10.20;99.90;;;;;;5053930;28;20213;-76
2022/03/22 06:28:57;;;;;;;0.50;0.40;;;10.50;99.90;;;;;;5051729;28;20218;-76
2022/03/22 06:31:24;;;;;;;0.50;0.40;;;10.90;99.90;;;;;;5053825;28;20654;-75
2022/03/22 06:33:50;;;;;;;0.50;0.40;;;11.20;99.90;;;;;;5053262;28;20202;-76
2022/03/22 06:36:18;;;;;;;0.50;0.40;;;11.50;99.90;;;;;;5052742;28;20194;-76
2022/03/22 06:38:45;;;;;;;0.50;0.40;;;11.80;99.90;;;;;;5053921;28;20222;-76
2022/03/22 06:41:12;;;;;;;0.50;0.40;;;12.20;99.90;;;;;;5053550;28;20694;-76
2022/03/22 06:43:39;;;;;;;0.50;0.40;;;12.80;99.90;;;;;;5053879;28;20541;-76
2022/03/22 06:46:05;;;;;;;0.50;0.40;;;13.30;99.90;;;;;;5054045;28;20194;-78
2022/03/22 06:48:32;;;;;;;1.95;1.85;;;13.90;99.90;;;;;;5053576;28;20214;-77
2022/03/22 06:50:59;;;;;;;0.50;0.40;;;14.60;99.80;;;;;;5053000;28;20254;-77
2022/03/22 06:53:27;;;;;;;0.50;0.50;;;15.60;91.30;;;;;;5053676;28;20444;-77
2022/03/22 06:55:53;;;;;;;0.50;0.40;;;16.50;86.00;;;;;;5053276;28;20441;-77
2022/03/22 06:58:22;;;;;;;0.50;0.40;;;17.40;81.00;;;;;;5053224;28;20962;-76
2022/03/22 07:00:49;;;;;;;0.50;0.30;;;18.00;80.10;;;;;;5052081;28;20471;-78
2022/03/22 07:03:16;;;;;;;0.50;0.40;;;18.40;77.40;;;;;;5053452;28;20437;-76
2022/03/22 07:05:45;;;;;;;0.50;0.30;;;19.00;73.80;;;;;;5046709;28;20508;-77
2022/03/22 07:08:12;;;;;;;0.50;0.40;;;19.50;70.10;;;;;;5053411;28;20962;-78
2022/03/22 07:10:40;;;;;;;0.50;0.40;;;20.10;67.60;;;;;;5052492;28;20555;-77
2022/03/22 07:13:11;;;;;;;0.50;0.30;;;20.90;65.80;;;;;;5053543;28;20448;-77
2022/03/22 07:15:39;;;;;;;0.50;0.40;;;21.80;62.80;;;;;;5053532;28;20430;-77
2022/03/22 07:18:08;;;;;;;10.23;8.57;;;22.40;59.80;;;;;;5053246;28;20479;-75
2022/03/22 07:20:36;;;;;;;0.50;0.40;;;22.80;57.30;;;;;;5052222;28;20452;-78
2022/03/22 07:23:03;;;;;;;0.50;0.37;;;22.80;55.70;;;;;;5053824;28;20440;-78
2022/03/22 07:25:33;;;;;;;0.50;0.33;;;22.60;55.30;;;;;;5047756;28;20804;-77
2022/03/22 07:28:01;;;;;;;0.50;0.30;;;22.80;55.60;;;;;;5040277;28;20473;-78
2022/03/22 07:30:28;;;;;;;0.50;0.40;;;23.30;54.70;;;;;;5048979;28;20473;-77
2022/03/22 07:32:55;;;;;;;0.50;0.30;;;23.30;53.70;;;;;;5049725;28;20811;-77
2022/03/22 07:35:23;;;;;;;0.50;0.30;;;23.60;53.10;;;;;;5032377;28;21154;-77
2022/03/22 07:37:49;;;;;;;0.50;0.40;;;23.90;53.00;;;;;;5031663;28;20469;-77
2022/03/22 07:40:16;;;;;;;0.50;0.30;;;24.20;52.50;;;;;;5030764;28;20533;-77
2022/03/22 07:42:44;;;;;;;0.50;0.30;;;24.10;49.60;;;;;;5032376;28;20508;-77
2022/03/22 07:45:12;;;;;;;0.63;0.63;;;24.20;50.70;;;;;;5032079;28;20438;-77
2022/03/22 07:47:41;;;;;;;0.50;0.30;;;24.10;49.10;;;;;;5031806;28;20450;-77
2022/03/22 07:53:01;;;;;;;0.50;0.30;;;23.80;49.00;;;;;;5032335;28;20509;-77
2022/03/22 07:55:29;;;;;;;0.50;0.30;;;23.80;48.90;;;;;;5032122;28;20477;-76
2022/03/22 07:57:55;;;;;;;0.53;0.37;;;24.20;49.50;;;;;;5031955;28;20493;-76
2022/03/22 08:00:24;;;;;;;0.50;0.30;;;25.10;49.20;;;;;;5031025;28;20932;-77
2022/03/22 08:02:52;;;;;;;0.50;0.30;;;26.10;47.60;;;;;;5031858;28;20442;-77
2022/03/22 08:05:19;;;;;;;0.50;0.30;;;26.60;47.80;;;;;;5031762;28;20851;-76
2022/03/22 08:07:45;;;;;;;0.50;0.37;;;26.80;45.90;;;;;;5032085;28;20465;-76
2022/03/22 08:10:13;;;;;;;0.50;0.30;;;27.30;44.00;;;;;;5031135;28;20474;-76
2022/03/22 08:12:40;;;;;;;0.50;0.30;;;27.50;42.80;;;;;;5032043;28;20787;-76
2022/03/22 08:15:08;;;;;;;0.50;0.30;;;28.40;41.70;;;;;;5031744;28;20470;-76
2022/03/22 08:17:37;;;;;;;0.50;0.40;;;28.50;41.00;;;;;;5031654;28;20502;-76
2022/03/22 08:20:05;;;;;;;0.50;0.30;;;28.50;39.30;;;;;;5031363;28;20477;-76
2022/03/22 08:22:33;;;;;;;0.50;0.30;;;28.60;39.40;;;;;;5031747;28;20441;-76
2022/03/22 08:24:59;;;;;;;0.60;0.60;;;28.80;40.20;;;;;;5031719;28;20468;-77
2022/03/22 08:27:27;;;;;;;0.50;0.40;;;29.20;37.70;;;;;;5032281;28;20468;-76
2022/03/22 08:29:53;;;;;;;0.50;0.30;;;28.90;38.20;;;;;;5029900;28;20454;-77
2022/03/22 08:32:21;;;;;;;0.50;0.30;;;28.70;38.40;;;;;;5031685;28;20436;-77
2022/03/22 08:34:49;;;;;;;0.50;0.30;;;29.90;38.20;;;;;;5031765;28;20487;-76
2022/03/22 08:37:16;;;;;;;0.70;0.70;;;30.60;38.80;;;;;;5031629;28;20442;-76
2022/03/22 08:39:42;;;;;;;0.50;0.40;;;31.10;36.20;;;;;;5030935;28;20438;-76
2022/03/22 08:42:09;;;;;;;0.50;0.40;;;30.80;34.70;;;;;;5031636;28;20556;-75
2022/03/22 08:44:36;;;;;;;0.50;0.40;;;30.70;35.00;;;;;;5031576;28;20527;-76
2022/03/22 08:47:03;;;;;;;0.50;0.50;;;31.60;36.60;;;;;;5031546;28;20477;-76
2022/03/22 08:49:29;;;;;;;0.50;0.30;;;32.70;35.50;;;;;;5030828;28;20445;-76
2022/03/22 08:51:57;;;;;;;0.50;0.30;;;32.30;33.80;;;;;;5031456;28;20489;-75
2022/03/22 08:54:24;;;;;;;0.50;0.30;;;32.60;34.10;;;;;;5031319;28;20418;-76
2022/03/22 08:56:51;;;;;;;0.50;0.30;;;32.70;32.80;;;;;;5030929;28;20442;-76
2022/03/22 08:59:17;;;;;;;0.50;0.30;;;32.00;32.10;;;;;;5030472;28;20462;-75
2022/03/22 09:01:44;;;;;;;0.50;0.30;;;31.80;31.50;;;;;;5031269;28;20437;-76
2022/03/22 09:06:57;;;;;;;0.50;0.30;;;31.40;35.00;;;;;;5031199;28;20406;-76
2022/03/22 09:09:24;;;;;;;0.93;0.93;;;31.90;33.30;;;;;;5030569;28;20458;-76
2022/03/22 09:11:50;;;;;;;0.50;0.30;;;32.20;31.50;;;;;;5030943;28;20478;-76
2022/03/22 09:14:17;;;;;;;0.50;0.30;;;31.20;31.20;;;;;;5030942;28;20533;-76
2022/03/22 09:16:44;;;;;;;0.50;0.40;;;30.30;31.90;;;;;;5031265;28;20808;-76
2022/03/22 09:19:11;;;;;;;0.80;0.60;;;30.20;31.80;;;;;;5029964;28;20478;-76
2022/03/22 09:21:37;;;;;;;1.50;1.33;;;30.10;32.20;;;;;;5030921;28;20446;-76
2022/03/22 09:24:07;;;;;;;0.60;0.60;;;29.40;31.70;;;;;;5030776;28;20450;-76
2022/03/22 09:26:34;;;;;;;0.63;0.57;;;29.60;31.90;;;;;;5031043;28;20862;-76
2022/03/22 09:29:01;;;;;;;1.77;1.70;;;30.20;32.10;;;;;;5028499;28;20959;-76
2022/03/22 09:31:28;;;;;;;1.53;1.13;;;29.80;31.80;;;;;;5030963;28;21036;-76
2022/03/22 09:33:56;;;;;;;2.10;2.00;;;29.60;32.40;;;;;;5030543;28;20863;-76
2022/03/22 09:36:23;;;;;;;1.60;0.70;;;30.30;33.50;;;;;;5031124;28;20442;-75
2022/03/22 09:38:50;;;;;;;0.50;0.30;;;31.00;33.10;;;;;;5030421;28;20464;-76
2022/03/22 09:41:19;;;;;;;0.50;0.30;;;31.60;32.30;;;;;;5031180;28;20441;-77
2022/03/22 09:43:47;;;;;;;2.40;2.20;;;32.60;32.60;;;;;;5030988;28;20947;-76
2022/03/22 09:46:18;;;;;;;0.50;0.30;;;33.40;33.40;;;;;;5030966;28;20473;-77
2022/03/22 09:48:47;;;;;;;1.97;1.87;;;33.60;32.30;;;;;;5031058;28;20511;-77
2022/03/22 09:54:00;;;;;;;0.50;0.30;;;34.20;32.50;;;;;;5030960;28;20452;-76
2022/03/22 09:56:30;;;;;;;0.50;0.30;;;34.20;33.60;;;;;;5031062;28;20446;-77
2022/03/22 09:58:59;;;;;;;0.50;0.30;;;34.50;31.90;;;;;;5030244;28;20952;-77
2022/03/22 10:01:26;;;;;;;0.50;0.30;;;35.00;33.70;;;;;;5031234;28;20852;-76
2022/03/22 10:04:00;;;;;;;0.80;0.70;;;35.70;31.40;;;;;;5030771;28;20448;-77
2022/03/22 10:06:27;;;;;;;0.50;0.30;;;34.80;30.00;;;;;;5030784;28;20430;-75
2022/03/22 10:08:55;;;;;;;0.50;0.43;;;34.90;31.80;;;;;;5031332;28;20462;-75
2022/03/22 10:11:21;;;;;;;0.50;0.40;;;35.40;31.60;;;;;;5034552;28;20873;-76
2022/03/22 10:13:54;;;;;;;0.83;0.83;;;35.90;31.10;;;;;;5034345;28;20924;-76
2022/03/22 10:16:21;;;;;;;0.53;0.53;;;36.20;32.10;;;;;;5034609;28;20438;-74
2022/03/22 10:18:47;;;;;;;0.50;0.30;;;35.70;31.40;;;;;;5033655;28;20485;-76
2022/03/22 10:21:14;;;;;;;0.50;0.40;;;35.40;30.30;;;;;;5034240;28;20449;-76
2022/03/22 10:23:52;;;;;;;0.50;0.30;;;34.10;29.80;;;;;;5069409;22;20492;-77
2022/03/22 10:26:19;;;;;;;0.50;0.30;;;33.10;32.00;;;;;;5054107;28;20441;-77
2022/03/22 10:28:50;;;;;;;0.50;0.30;;;33.00;31.50;;;;;;5052051;28;20483;-75
2022/03/22 10:31:19;;;;;;;2.50;2.30;;;32.50;31.10;;;;;;5053876;28;20477;-77
2022/03/22 10:33:52;;;;;;;0.50;0.30;;;32.60;33.20;;;;;;5053443;28;20823;-77
2022/03/22 10:36:22;;;;;;;0.50;0.30;;;33.40;33.30;;;;;;5053242;28;20436;-78
2022/03/22 10:38:57;;;;;;;0.50;0.30;;;34.00;32.30;;;;;;5053043;28;20469;-77
2022/03/22 10:41:28;;;;;;;3.17;2.97;;;34.60;31.40;;;;;;5053502;28;20445;-78
2022/03/22 10:44:02;;;;;;;4.00;1.87;;;33.80;30.80;;;;;;5053388;28;20460;-79
2022/03/22 10:46:31;;;;;;;1.60;1.50;;;33.60;31.50;;;;;;5053078;28;20444;-77
2022/03/22 10:49:03;;;;;;;0.50;0.30;;;33.30;31.00;;;;;;5052153;28;20444;-74
2022/03/22 10:51:33;;;;;;;0.50;0.30;;;32.40;32.80;;;;;;5052786;28;20518;-77
2022/03/22 10:54:00;;;;;;;0.60;0.43;;;32.90;32.80;;;;;;5052716;28;20997;-78
2022/03/22 10:56:27;;;;;;;0.60;0.60;;;32.70;31.80;;;;;;5053394;28;20441;-77
2022/03/22 10:58:55;;;;;;;0.50;0.30;;;32.40;31.90;;;;;;5052347;28;20973;-78
2022/03/22 11:01:23;;;;;;;8.60;2.80;;;32.00;32.60;;;;;;5052866;28;20429;-77
2022/03/22 11:03:57;;;;;;;20.97;3.10;;;31.90;33.30;;;;;;5053027;28;20465;-78
2022/03/22 11:06:29;;;;;;;0.50;0.30;;;31.60;32.40;;;;;;5053705;28;20476;-76
2022/03/22 11:08:56;;;;;;;0.50;0.40;;;31.30;33.30;;;;;;5052379;28;20643;-77
2022/03/22 11:11:23;;;;;;;0.50;0.30;;;31.60;33.00;;;;;;5052671;28;20484;-77
2022/03/22 11:13:50;;;;;;;0.50;0.30;;;32.00;32.70;;;;;;5052842;28;20473;-77
2022/03/22 11:16:19;;;;;;;0.50;0.30;;;32.00;33.70;;;;;;5052576;28;20445;-77
2022/03/22 11:18:46;;;;;;;0.50;0.30;;;32.60;33.40;;;;;;5052315;28;20815;-76
2022/03/22 11:21:18;;;;;;;0.50;0.30;;;32.90;34.10;;;;;;5051594;28;20819;-78
2022/03/22 11:23:47;;;;;;;0.50;0.30;;;33.80;32.80;;;;;;5052013;28;21033;-76
2022/03/22 11:26:16;;;;;;;0.50;0.30;;;34.20;32.80;;;;;;5052682;28;20448;-77
2022/03/22 11:28:44;;;;;;;0.50;0.30;;;33.50;32.50;;;;;;5050857;28;20468;-77
2022/03/22 11:31:13;;;;;;;0.50;0.30;;;33.30;32.60;;;;;;5051626;28;20480;-77
2022/03/22 11:36:28;;;;;;;0.50;0.30;;;34.30;34.10;;;;;;5052208;28;20872;-78
2022/03/22 11:38:57;;;;;;;1.07;0.93;;;34.70;32.60;;;;;;5051763;28;20421;-77
2022/03/22 11:44:15;;;;;;;0.50;0.43;;;34.20;30.20;;;;;;5052191;28;20515;-78
2022/03/22 11:46:43;;;;;;;0.50;0.30;;;33.20;31.00;;;;;;5051952;28;20495;-77
2022/03/22 11:49:18;;;;;;;0.50;0.30;;;32.60;33.60;;;;;;5051627;28;20977;-77
2022/03/22 11:51:57;;;;;;;0.50;0.40;;;32.20;32.00;;;;;;5051590;28;20542;-76
2022/03/22 11:54:25;;;;;;;1.00;1.00;;;31.30;31.90;;;;;;5052253;28;20433;-77
2022/03/22 11:56:56;;;;;;;0.50;0.30;;;31.30;34.30;;;;;;5051729;28;20978;-77
2022/03/22 11:59:23;;;;;;;0.70;0.70;;;30.80;32.50;;;;;;5051155;28;20432;-77
2022/03/22 12:02:07;;;;;;;0.50;0.30;;;30.80;34.00;;;;;;5052091;28;20441;-78
2022/03/22 12:04:38;;;;;;;0.50;0.30;;;30.90;35.00;;;;;;5051151;28;20463;-77
2022/03/22 12:07:08;;;;;;;0.50;0.50;;;31.30;35.50;;;;;;5052075;28;20433;-77
2022/03/22 12:09:38;;;;;;;0.60;0.57;;;31.50;33.90;;;;;;5051126;28;20441;-77
2022/03/22 12:12:06;;;;;;;0.50;0.40;;;31.80;33.10;;;;;;5051558;28;20850;-77
2022/03/22 12:14:35;;;;;;;1.27;1.27;;;32.00;34.10;;;;;;5051967;28;20469;-76
2022/03/22 12:17:02;;;;;;;0.50;0.40;;;32.30;32.40;;;;;;5051014;28;20506;-77
2022/03/22 12:19:31;;;;;;;0.70;0.67;;;31.40;32.10;;;;;;5051132;28;20441;-78
2022/03/22 12:22:00;;;;;;;0.50;0.40;;;31.10;33.50;;;;;;5050877;28;20445;-77
2022/03/22 12:24:33;;;;;;;0.50;0.40;;;31.00;33.10;;;;;;5051257;28;20441;-77
2022/03/22 12:27:00;;;;;;;0.50;0.30;;;30.80;33.90;;;;;;5051356;28;20543;-79
2022/03/22 12:29:27;;;;;;;0.80;0.60;;;31.20;35.70;;;;;;5048647;28;20440;-77
2022/03/22 12:31:56;;;;;;;0.50;0.40;;;31.50;33.90;;;;;;5050973;28;20476;-78
2022/03/22 12:34:26;;;;;;;3.20;1.03;;;31.30;32.60;;;;;;5050955;28;20919;-76
2022/03/22 12:36:53;;;;;;;1.47;1.40;;;30.20;33.20;;;;;;5051353;28;20516;-77
2022/03/22 12:39:20;;;;;;;1.27;1.17;;;29.50;33.70;;;;;;5050464;28;20437;-77
2022/03/22 12:41:49;;;;;;;0.50;0.30;;;29.90;34.60;;;;;;5051375;28;20430;-77
2022/03/22 12:44:16;;;;;;;5.40;1.27;;;30.00;34.30;;;;;;5050814;28;20452;-77
2022/03/22 12:46:43;;;;;;;0.50;0.30;;;30.00;35.00;;;;;;5050928;28;20495;-78
2022/03/22 12:49:10;;;;;;;0.50;0.30;;;30.60;34.80;;;;;;5049927;28;20441;-77
2022/03/22 12:51:38;;;;;;;0.50;0.30;;;31.10;34.90;;;;;;5050749;28;20465;-75
2022/03/22 12:54:06;;;;;;;0.50;0.30;;;31.60;33.90;;;;;;5050742;28;20867;-75
2022/03/22 12:56:33;;;;;;;0.70;0.70;;;31.70;33.40;;;;;;5050898;28;20445;-75
2022/03/22 12:59:01;;;;;;;0.50;0.40;;;31.10;34.00;;;;;;5049934;28;20989;-76
2022/03/22 13:01:38;;;;;;;0.70;0.50;;;30.00;34.30;;;;;;5050438;28;20444;-75
2022/03/22 13:04:06;;;;;;;5.30;1.13;;;30.10;34.20;;;;;;5050802;28;20444;-76
2022/03/22 13:06:33;;;;;;;0.60;0.30;;;30.30;34.60;;;;;;5051094;28;20448;-76
2022/03/22 13:11:44;;;;;;;0.50;0.30;;;30.20;34.60;;;;;;5050342;28;21163;-76
2022/03/22 13:16:58;;;;;;;0.60;0.40;;;29.30;35.50;;;;;;5050669;28;20884;-75
2022/03/22 13:19:32;;;;;;;0.50;0.30;;;29.60;34.50;;;;;;5049631;28;20437;-76
2022/03/22 13:21:59;;;;;;;0.50;0.30;;;29.10;33.50;;;;;;5050447;28;20508;-76
2022/03/22 13:24:27;;;;;;;0.50;0.30;;;29.30;33.90;;;;;;5050568;28;20783;-76
2022/03/22 13:26:56;;;;;;;4.20;0.70;;;29.60;34.10;;;;;;5051086;28;20830;-75
2022/03/22 13:29:26;;;;;;;0.50;0.40;;;29.00;33.60;;;;;;5048606;28;20864;-75
2022/03/22 13:31:57;;;;;;;0.70;0.40;;;28.20;34.60;;;;;;5050255;28;20632;-76
2022/03/22 13:34:25;;;;;;;0.60;0.50;;;28.10;34.20;;;;;;5050406;28;20429;-73